createdAt,value
2018-10-01T00:00:10.674Z,8.71
2018-10-01T00:02:39.124Z,8.73
2018-10-01T00:05:07.477Z,8.69
2018-10-01T00:07:36.195Z,8.64
2018-10-01T00:10:04.660Z,8.65
2018-10-01T00:12:33.039Z,8.65
2018-10-01T00:15:01.941Z,8.60
2018-10-01T00:17:30.789Z,8.63
2018-10-01T00:20:04.940Z,8.60
2018-10-01T00:22:38.679Z,8.41
2018-10-01T00:25:07.451Z,8.44
2018-10-01T00:27:35.911Z,8.47
2018-10-01T00:30:04.415Z,8.43
2018-10-01T00:32:33.302Z,8.47
2018-10-01T00:35:01.662Z,8.44
2018-10-01T00:37:30.118Z,8.46
2018-10-01T00:39:58.560Z,8.48
2018-10-01T00:42:26.991Z,8.44
2018-10-01T00:44:55.344Z,8.52
2018-10-01T00:47:24.076Z,8.52
2018-10-01T00:49:52.576Z,8.52
2018-10-01T00:52:21.011Z,8.49
2018-10-01T00:54:50.028Z,8.53
2018-10-01T00:57:18.432Z,8.57
2018-10-01T00:59:47.319Z,8.50
2018-10-01T01:02:16.179Z,8.50
2018-10-01T01:04:45.380Z,8.46
2018-10-01T01:07:13.864Z,8.45
2018-10-01T01:09:42.756Z,8.39
2018-10-01T01:12:11.240Z,8.41
2018-10-01T01:14:39.723Z,8.43
2018-10-01T01:17:08.779Z,8.41
2018-10-01T01:19:37.296Z,8.38
2018-10-01T01:22:05.764Z,8.43
2018-10-01T01:24:34.686Z,8.39
2018-10-01T01:27:03.220Z,8.39
2018-10-01T01:29:31.615Z,8.41
2018-10-01T01:32:00.095Z,8.47
2018-10-01T01:34:28.455Z,8.48
2018-10-01T01:36:57.572Z,8.42
2018-10-01T01:39:26.282Z,8.43
2018-10-01T01:41:54.727Z,8.34
2018-10-01T01:44:23.147Z,8.42
2018-10-01T01:46:51.887Z,8.37
2018-10-01T01:49:20.260Z,8.35
2018-10-01T01:51:48.690Z,8.41
2018-10-01T01:54:17.770Z,8.44
2018-10-01T01:56:46.304Z,8.41
2018-10-01T01:59:14.677Z,8.34
2018-10-01T02:01:43.407Z,8.37
2018-10-01T02:04:11.783Z,8.38
2018-10-01T02:06:40.361Z,8.33
2018-10-01T02:09:10.392Z,8.38
2018-10-01T02:11:38.856Z,8.31
2018-10-01T02:14:07.239Z,8.27
2018-10-01T02:16:35.939Z,8.28
2018-10-01T02:19:04.295Z,8.26
2018-10-01T02:21:32.656Z,8.20
2018-10-01T02:24:01.091Z,8.16
2018-10-01T02:26:29.568Z,8.10
2018-10-01T02:28:57.912Z,8.10
2018-10-01T02:31:26.619Z,8.13
2018-10-01T02:33:55.116Z,8.19
2018-10-01T02:36:23.598Z,8.21
2018-10-01T02:38:52.035Z,8.18
2018-10-01T02:41:20.421Z,8.22
2018-10-01T02:43:48.795Z,8.23
2018-10-01T02:46:17.704Z,8.24
2018-10-01T02:48:46.071Z,8.21
2018-10-01T02:51:14.444Z,8.16
2018-10-01T02:53:48.116Z,8.06
2018-10-01T02:56:16.672Z,8.06
2018-10-01T02:58:45.120Z,8.14
2018-10-01T03:01:13.914Z,8.14
2018-10-01T03:03:42.305Z,8.17
2018-10-01T03:06:10.774Z,8.18
2018-10-01T03:08:39.684Z,8.17
2018-10-01T03:11:08.035Z,8.22
2018-10-01T03:13:36.383Z,8.23
2018-10-01T03:16:05.212Z,8.25
2018-10-01T03:18:40.228Z,8.33
2018-10-01T03:21:08.918Z,8.29
2018-10-01T03:23:37.390Z,8.31
2018-10-01T03:26:06.671Z,8.34
2018-10-01T03:28:35.591Z,8.41
2018-10-01T03:31:04.354Z,8.44
2018-10-01T03:33:32.785Z,8.43
2018-10-01T03:36:01.562Z,8.39
2018-10-01T03:38:30.158Z,8.34
2018-10-01T03:40:58.679Z,8.35
2018-10-01T03:43:27.495Z,8.37
2018-10-01T03:45:55.979Z,8.35
2018-10-01T03:48:25.147Z,8.39
2018-10-01T03:50:53.964Z,8.32
2018-10-01T03:53:22.841Z,8.34
2018-10-01T03:55:52.024Z,8.34
2018-10-01T03:58:20.817Z,8.31
2018-10-01T04:00:49.350Z,8.29
2018-10-01T04:03:17.892Z,8.25
2018-10-01T04:05:46.696Z,8.28
2018-10-01T04:08:15.161Z,8.25
2018-10-01T04:10:43.720Z,8.21
2018-10-01T04:13:12.254Z,8.18
2018-10-01T04:15:40.616Z,8.15
2018-10-01T04:18:08.964Z,8.16
2018-10-01T04:20:38.706Z,8.11
2018-10-01T04:23:07.113Z,8.04
2018-10-01T04:25:35.555Z,7.95
2018-10-01T04:28:04.009Z,7.93
2018-10-01T04:30:32.415Z,7.92
2018-10-01T04:33:00.895Z,7.90
2018-10-01T04:35:29.375Z,7.96
2018-10-01T04:37:57.756Z,7.88
2018-10-01T04:40:26.095Z,7.96
2018-10-01T04:42:54.829Z,7.95
2018-10-01T04:45:23.849Z,7.98
2018-10-01T04:47:52.400Z,8.01
2018-10-01T04:50:21.232Z,7.99
2018-10-01T04:52:49.756Z,8.01
2018-10-01T04:55:18.232Z,7.99
2018-10-01T04:57:47.039Z,7.99
2018-10-01T05:00:15.419Z,7.94
2018-10-01T05:02:43.763Z,7.86
2018-10-01T05:05:12.591Z,7.94
2018-10-01T05:07:40.985Z,7.89
2018-10-01T05:10:09.459Z,7.89
2018-10-01T05:12:37.896Z,7.91
2018-10-01T05:15:07.123Z,7.86
2018-10-01T05:17:35.639Z,7.87
2018-10-01T05:20:04.852Z,7.90
2018-10-01T05:22:33.231Z,7.91
2018-10-01T05:25:01.635Z,7.93
2018-10-01T05:27:30.052Z,7.91
2018-10-01T05:29:58.420Z,7.91
2018-10-01T05:32:26.827Z,7.82
2018-10-01T05:34:55.399Z,7.81
2018-10-01T05:37:24.504Z,8.02
2018-10-01T05:39:52.951Z,8.05
2018-10-01T05:42:21.350Z,8.03
2018-10-01T05:44:49.804Z,8.12
2018-10-01T05:47:18.405Z,8.21
2018-10-01T05:49:46.795Z,8.22
2018-10-01T05:52:15.309Z,8.28
2018-10-01T05:54:44.061Z,8.39
2018-10-01T05:57:12.931Z,8.56
2018-10-01T05:59:41.283Z,8.66
2018-10-01T06:02:09.851Z,8.85
2018-10-01T06:04:38.373Z,9.00
2018-10-01T06:07:06.727Z,9.00
2018-10-01T06:09:35.231Z,9.01
2018-10-01T06:12:04.064Z,9.16
2018-10-01T06:14:32.870Z,9.25
2018-10-01T06:17:01.231Z,9.43
2018-10-01T06:19:31.322Z,9.56
2018-10-01T06:21:59.836Z,9.74
2018-10-01T06:24:28.501Z,9.86
2018-10-01T06:26:57.055Z,10.07
2018-10-01T06:29:25.468Z,9.98
2018-10-01T06:31:53.920Z,10.16
2018-10-01T06:34:22.717Z,10.25
2018-10-01T06:36:51.087Z,10.35
2018-10-01T06:39:19.939Z,10.30
2018-10-01T06:41:48.771Z,10.42
2018-10-01T06:44:17.075Z,10.47
2018-10-01T06:46:45.512Z,10.46
2018-10-01T06:49:13.917Z,10.54
2018-10-01T06:51:42.424Z,10.65
2018-10-01T06:54:10.951Z,10.78
2018-10-01T06:56:39.367Z,10.83
2018-10-01T06:59:08.543Z,10.83
2018-10-01T07:01:37.007Z,10.87
2018-10-01T07:04:05.414Z,10.94
2018-10-01T07:06:33.769Z,10.92
2018-10-01T07:09:02.404Z,11.20
2018-10-01T07:11:31.155Z,11.25
2018-10-01T07:13:59.499Z,11.17
2018-10-01T07:16:28.794Z,11.03
2018-10-01T07:18:57.575Z,11.18
2018-10-01T07:21:25.947Z,11.29
2018-10-01T07:23:54.343Z,11.36
2018-10-01T07:26:22.803Z,11.41
2018-10-01T07:28:51.387Z,11.25
2018-10-01T07:31:19.818Z,11.42
2018-10-01T07:33:48.599Z,11.30
2018-10-01T07:36:16.952Z,11.38
2018-10-01T07:38:45.375Z,11.38
2018-10-01T07:41:14.248Z,11.39
2018-10-01T07:43:42.743Z,11.38
2018-10-01T07:46:11.490Z,11.37
2018-10-01T07:48:40.635Z,11.36
2018-10-01T07:51:09.702Z,11.56
2018-10-01T07:53:37.966Z,11.69
2018-10-01T07:56:06.377Z,11.72
2018-10-01T07:58:35.339Z,11.86
2018-10-01T08:01:03.719Z,11.98
2018-10-01T08:03:32.731Z,11.85
2018-10-01T08:06:01.079Z,11.98
2018-10-01T08:08:29.635Z,12.00
2018-10-01T08:10:58.100Z,12.20
2018-10-01T08:13:26.519Z,12.13
2018-10-01T08:15:54.968Z,12.29
2018-10-01T08:18:23.394Z,12.24
2018-10-01T08:20:51.867Z,12.16
2018-10-01T08:23:20.967Z,12.08
2018-10-01T08:25:49.867Z,12.23
2018-10-01T08:28:18.395Z,12.15
2018-10-01T08:30:46.747Z,12.09
2018-10-01T08:33:15.140Z,12.17
2018-10-01T08:35:44.028Z,12.20
2018-10-01T08:38:12.534Z,12.10
2018-10-01T08:40:40.994Z,12.12
2018-10-01T08:43:09.351Z,12.11
2018-10-01T08:45:37.713Z,12.04
2018-10-01T08:48:06.463Z,12.17
2018-10-01T08:50:40.412Z,12.08
2018-10-01T08:53:32.427Z,12.19
2018-10-01T08:56:00.884Z,11.99
2018-10-01T08:58:29.319Z,12.21
2018-10-01T09:00:57.931Z,12.29
2018-10-01T09:03:26.336Z,12.25
2018-10-01T09:05:54.704Z,12.27
2018-10-01T09:08:23.416Z,12.43
2018-10-01T09:10:51.801Z,11.95
2018-10-01T09:13:20.179Z,12.56
2018-10-01T09:15:48.992Z,12.70
2018-10-01T09:18:17.472Z,12.69
2018-10-01T09:20:45.948Z,12.96
2018-10-01T09:23:14.794Z,13.01
2018-10-01T09:25:43.153Z,13.07
2018-10-01T09:28:11.547Z,13.21
2018-10-01T09:30:40.575Z,13.21
2018-10-01T09:33:08.935Z,13.38
2018-10-01T09:35:37.701Z,13.31
2018-10-01T09:38:06.777Z,13.48
2018-10-01T09:40:35.281Z,13.62
2018-10-01T09:43:03.695Z,13.60
2018-10-01T09:45:32.561Z,13.71
2018-10-01T09:48:00.979Z,13.87
2018-10-01T09:50:29.391Z,13.87
2018-10-01T09:52:58.140Z,13.86
2018-10-01T09:55:26.592Z,13.83
2018-10-01T09:57:55.019Z,13.96
2018-10-01T10:00:28.810Z,14.11
2018-10-01T10:02:57.380Z,14.02
2018-10-01T10:05:25.785Z,13.95
2018-10-01T10:07:54.218Z,14.11
2018-10-01T10:10:22.600Z,14.22
2018-10-01T10:12:50.981Z,14.16
2018-10-01T10:15:19.777Z,14.24
2018-10-01T10:17:48.222Z,14.19
2018-10-01T10:20:16.657Z,14.04
2018-10-01T10:22:45.150Z,14.07
2018-10-01T10:25:13.680Z,14.19
2018-10-01T10:27:42.113Z,14.36
2018-10-01T10:30:11.283Z,14.41
2018-10-01T10:32:40.573Z,14.40
2018-10-01T10:35:08.915Z,14.51
2018-10-01T10:37:37.303Z,14.61
2018-10-01T10:40:05.696Z,14.85
2018-10-01T10:42:34.051Z,14.88
2018-10-01T10:45:02.517Z,15.10
2018-10-01T10:47:31.064Z,15.34
2018-10-01T10:49:59.558Z,15.30
2018-10-01T10:52:28.456Z,15.48
2018-10-01T10:54:56.879Z,15.64
2018-10-01T10:57:25.435Z,15.56
2018-10-01T10:59:53.808Z,15.51
2018-10-01T11:02:22.839Z,15.58
2018-10-01T11:04:51.211Z,15.58
2018-10-01T11:07:20.243Z,15.50
2018-10-01T11:09:48.713Z,15.70
2018-10-01T11:12:17.240Z,15.38
2018-10-01T11:14:46.211Z,15.66
2018-10-01T11:17:14.566Z,15.56
2018-10-01T11:19:43.449Z,15.59
2018-10-01T11:22:11.987Z,15.57
2018-10-01T11:24:41.219Z,15.23
2018-10-01T11:27:09.624Z,15.37
2018-10-01T11:29:38.345Z,15.61
2018-10-01T11:32:07.126Z,15.77
2018-10-01T11:34:35.742Z,15.79
2018-10-01T11:37:04.015Z,15.94
2018-10-01T11:39:32.385Z,15.98
2018-10-01T11:42:00.780Z,15.82
2018-10-01T11:44:29.602Z,15.98
2018-10-01T11:46:57.943Z,15.95
2018-10-01T11:49:26.370Z,16.12
2018-10-01T11:51:54.845Z,16.24
2018-10-01T11:54:23.335Z,15.88
2018-10-01T11:56:51.826Z,15.86
2018-10-01T11:59:20.247Z,16.23
2018-10-01T12:01:48.639Z,16.22
2018-10-01T12:04:17.070Z,16.33
2018-10-01T12:06:46.016Z,15.98
2018-10-01T12:09:14.516Z,15.97
2018-10-01T12:11:42.960Z,15.78
2018-10-01T12:14:11.843Z,15.74
2018-10-01T12:16:40.265Z,15.87
2018-10-01T12:19:09.279Z,15.70
2018-10-01T12:21:38.197Z,15.61
2018-10-01T12:24:06.767Z,15.58
2018-10-01T12:26:35.127Z,15.46
2018-10-01T12:29:03.995Z,15.60
2018-10-01T12:31:32.468Z,15.76
2018-10-01T12:34:00.907Z,15.70
2018-10-01T12:36:29.683Z,15.60
2018-10-01T12:38:58.065Z,15.59
2018-10-01T12:41:26.474Z,15.49
2018-10-01T12:43:55.280Z,15.53
2018-10-01T12:46:23.756Z,15.45
2018-10-01T12:48:52.103Z,15.67
2018-10-01T12:51:20.553Z,15.85
2018-10-01T12:53:48.958Z,15.90
2018-10-01T12:56:17.308Z,15.86
2018-10-01T12:58:46.063Z,15.93
2018-10-01T13:01:14.526Z,15.78
2018-10-01T13:03:42.888Z,16.18
2018-10-01T13:06:11.786Z,16.34
2018-10-01T13:08:40.099Z,16.44
2018-10-01T13:11:08.780Z,16.49
2018-10-01T13:13:37.559Z,16.62
2018-10-01T13:16:05.937Z,16.61
2018-10-01T13:18:34.431Z,16.59
2018-10-01T13:21:03.107Z,16.61
2018-10-01T13:23:31.584Z,16.62
2018-10-01T13:25:59.951Z,16.37
2018-10-01T13:28:28.971Z,16.33
2018-10-01T13:30:57.437Z,16.42
2018-10-01T13:33:26.048Z,16.56
2018-10-01T13:35:54.524Z,16.55
2018-10-01T13:38:23.178Z,16.36
2018-10-01T13:40:52.240Z,16.54
2018-10-01T13:43:20.667Z,16.43
2018-10-01T13:45:49.209Z,16.74
2018-10-01T13:48:17.910Z,16.93
2018-10-01T13:50:46.359Z,16.80
2018-10-01T13:53:15.318Z,16.66
2018-10-01T13:55:43.775Z,16.85
2018-10-01T13:58:12.750Z,16.79
2018-10-01T14:00:41.061Z,16.91
2018-10-01T14:03:09.412Z,16.69
2018-10-01T14:05:38.138Z,16.46
2018-10-01T14:08:06.667Z,16.12
2018-10-01T14:10:35.068Z,16.49
2018-10-01T14:13:03.456Z,16.40
2018-10-01T14:15:31.923Z,16.33
2018-10-01T14:18:00.308Z,16.18
2018-10-01T14:20:29.559Z,16.38
2018-10-01T14:22:58.008Z,16.44
2018-10-01T14:25:26.464Z,16.46
2018-10-01T14:27:55.163Z,16.25
2018-10-01T14:30:23.873Z,16.29
2018-10-01T14:32:52.203Z,16.07
2018-10-01T14:35:20.928Z,15.93
2018-10-01T14:37:49.379Z,15.77
2018-10-01T14:40:17.765Z,15.95
2018-10-01T14:42:46.176Z,15.94
2018-10-01T14:45:14.613Z,15.94
2018-10-01T14:47:43.049Z,15.78
2018-10-01T14:50:11.424Z,15.76
2018-10-01T14:52:39.783Z,15.68
2018-10-01T14:55:08.115Z,15.66
2018-10-01T14:57:38.004Z,15.48
2018-10-01T15:00:06.518Z,15.52
2018-10-01T15:02:34.916Z,15.29
2018-10-01T15:05:03.307Z,15.10
2018-10-01T15:07:31.804Z,15.13
2018-10-01T15:10:00.283Z,15.13
2018-10-01T15:12:28.755Z,14.96
2018-10-01T15:14:57.907Z,14.99
2018-10-01T15:17:26.252Z,14.75
2018-10-01T15:19:54.998Z,14.60
2018-10-01T15:22:23.374Z,14.15
2018-10-01T15:24:51.743Z,13.90
2018-10-01T15:27:20.161Z,13.94
2018-10-01T15:29:48.680Z,13.88
2018-10-01T15:32:17.061Z,13.82
2018-10-01T15:34:45.886Z,13.77
2018-10-01T15:37:14.291Z,13.70
2018-10-01T15:39:42.639Z,13.56
2018-10-01T15:42:11.195Z,13.54
2018-10-01T15:44:39.586Z,13.18
2018-10-01T15:47:07.963Z,12.90
2018-10-01T15:49:36.486Z,12.31
2018-10-01T15:52:04.983Z,12.36
2018-10-01T15:54:33.396Z,12.18
2018-10-01T15:57:02.339Z,12.05
2018-10-01T15:59:30.745Z,12.15
2018-10-01T16:01:59.111Z,12.22
2018-10-01T16:04:27.587Z,12.22
2018-10-01T16:06:56.017Z,12.17
2018-10-01T16:09:24.440Z,12.12
2018-10-01T16:11:53.507Z,12.07
2018-10-01T16:14:21.864Z,11.92
2018-10-01T16:16:50.855Z,11.99
2018-10-01T16:19:19.281Z,11.97
2018-10-01T16:21:47.679Z,11.79
2018-10-01T16:24:16.259Z,11.90
2018-10-01T16:26:44.664Z,11.80
2018-10-01T16:29:13.130Z,11.77
2018-10-01T16:31:41.549Z,11.72
2018-10-01T16:34:10.267Z,11.68
2018-10-01T16:36:38.851Z,11.66
2018-10-01T16:39:11.871Z,11.61
2018-10-01T16:41:40.285Z,11.55
2018-10-01T16:44:08.848Z,11.54
2018-10-01T16:46:37.344Z,11.49
2018-10-01T16:49:05.768Z,11.46
2018-10-01T16:51:34.284Z,11.38
2018-10-01T16:54:03.144Z,11.28
2018-10-01T16:56:31.577Z,11.12
2018-10-01T16:58:59.965Z,10.95
2018-10-01T17:01:28.475Z,10.81
2018-10-01T17:03:56.828Z,10.59
2018-10-01T17:06:31.844Z,10.51
2018-10-01T17:09:00.610Z,10.52
2018-10-01T17:11:29.260Z,10.49
2018-10-01T17:13:58.287Z,10.47
2018-10-01T17:16:26.715Z,10.47
2018-10-01T17:18:55.168Z,10.48
2018-10-01T17:21:23.978Z,10.49
2018-10-01T17:23:52.359Z,10.50
2018-10-01T17:26:20.703Z,10.50
2018-10-01T17:28:49.632Z,10.46
2018-10-01T17:31:18.946Z,10.46
2018-10-01T17:33:47.460Z,10.47
2018-10-01T17:36:15.883Z,10.47
2018-10-01T17:38:44.431Z,10.43
2018-10-01T17:41:12.867Z,10.38
2018-10-01T17:43:41.939Z,10.36
2018-10-01T17:46:10.298Z,10.32
2018-10-01T17:48:38.695Z,10.29
2018-10-01T17:51:07.689Z,10.27
2018-10-01T17:53:36.907Z,10.23
2018-10-01T17:56:05.708Z,10.22
2018-10-01T17:58:35.364Z,10.19
2018-10-01T18:01:04.508Z,10.13
2018-10-01T18:03:33.416Z,10.10
2018-10-01T18:06:01.952Z,10.05
2018-10-01T18:08:30.488Z,10.02
2018-10-01T18:10:58.907Z,9.89
2018-10-01T18:13:27.343Z,9.82
2018-10-01T18:15:55.712Z,9.76
2018-10-01T18:18:25.336Z,9.72
2018-10-01T18:20:54.078Z,9.65
2018-10-01T18:23:22.571Z,9.59
2018-10-01T18:25:51.423Z,9.51
2018-10-01T18:28:20.240Z,9.41
2018-10-01T18:30:48.894Z,9.37
2018-10-01T18:33:17.604Z,9.36
2018-10-01T18:35:46.102Z,9.30
2018-10-01T18:38:15.736Z,9.29
2018-10-01T18:40:44.255Z,9.29
2018-10-01T18:43:13.057Z,9.30
2018-10-01T18:45:41.716Z,9.28
2018-10-01T18:48:10.109Z,9.19
2018-10-01T18:50:38.706Z,9.07
2018-10-01T18:53:07.355Z,9.03
2018-10-01T18:55:35.815Z,9.03
2018-10-01T18:58:05.373Z,8.98
2018-10-01T19:00:34.353Z,8.90
2018-10-01T19:03:02.747Z,8.84
2018-10-01T19:05:31.790Z,8.80
2018-10-01T19:08:00.319Z,8.76
2018-10-01T19:10:29.595Z,8.73
2018-10-01T19:12:58.087Z,8.72
2018-10-01T19:15:27.440Z,8.68
2018-10-01T19:17:55.885Z,8.65
2018-10-01T19:20:24.773Z,8.62
2018-10-01T19:22:53.582Z,8.61
2018-10-01T19:25:22.027Z,8.56
2018-10-01T19:27:51.510Z,8.49
2018-10-01T19:30:19.907Z,8.48
2018-10-01T19:32:48.308Z,8.46
2018-10-01T19:35:16.806Z,8.44
2018-10-01T19:37:45.266Z,8.43
2018-10-01T19:40:15.231Z,8.42
2018-10-01T19:42:44.555Z,8.42
2018-10-01T19:45:13.760Z,8.39
2018-10-01T19:47:43.207Z,8.38
2018-10-01T19:50:11.810Z,8.40
2018-10-01T19:52:40.180Z,8.43
2018-10-01T19:55:08.677Z,8.45
2018-10-01T19:57:37.012Z,8.45
2018-10-01T20:00:05.626Z,8.47
2018-10-01T20:02:34.267Z,8.51
2018-10-01T20:05:02.959Z,8.51
2018-10-01T20:07:31.612Z,8.52
2018-10-01T20:10:00.154Z,8.51
2018-10-01T20:12:28.621Z,8.50
2018-10-01T20:14:57.071Z,8.49
2018-10-01T20:17:25.932Z,8.51
2018-10-01T20:19:54.744Z,8.50
2018-10-01T20:22:23.267Z,8.51
2018-10-01T20:24:51.815Z,8.51
2018-10-01T20:27:20.181Z,8.52
2018-10-01T20:29:48.752Z,8.52
2018-10-01T20:32:17.242Z,8.31
2018-10-01T20:34:45.513Z,8.48
2018-10-01T20:37:13.917Z,8.44
2018-10-01T20:39:42.332Z,8.42
2018-10-01T20:42:10.813Z,8.40
2018-10-01T20:44:39.946Z,8.33
2018-10-01T20:47:08.686Z,8.36
2018-10-01T20:49:37.139Z,8.36
2018-10-01T20:52:05.713Z,8.37
2018-10-01T20:54:34.519Z,8.39
2018-10-01T20:57:02.925Z,8.40
2018-10-01T20:59:31.279Z,8.39
2018-10-01T21:02:00.161Z,8.39
2018-10-01T21:04:28.541Z,8.39
2018-10-01T21:06:56.942Z,8.42
2018-10-01T21:09:26.299Z,8.42
2018-10-01T21:11:54.717Z,8.39
2018-10-01T21:14:23.190Z,8.37
2018-10-01T21:16:51.868Z,8.37
2018-10-01T21:19:20.236Z,8.39
2018-10-01T21:21:48.593Z,8.40
2018-10-01T21:24:17.433Z,8.42
2018-10-01T21:26:45.877Z,8.44
2018-10-01T21:29:14.235Z,8.43
2018-10-01T21:31:42.911Z,8.45
2018-10-01T21:34:11.307Z,8.43
2018-10-01T21:36:39.704Z,8.39
2018-10-01T21:39:10.187Z,8.37
2018-10-01T21:41:38.584Z,8.34
2018-10-01T21:44:07.060Z,8.31
2018-10-01T21:46:35.604Z,8.32
2018-10-01T21:49:03.982Z,8.29
2018-10-01T21:51:32.422Z,8.23
2018-10-01T21:54:01.120Z,8.25
2018-10-01T21:56:29.476Z,8.22
2018-10-01T21:58:57.878Z,8.22
2018-10-01T22:01:44.379Z,8.24
2018-10-01T22:04:12.738Z,8.26
2018-10-01T22:06:41.078Z,8.30
2018-10-01T22:09:09.760Z,8.34
2018-10-01T22:11:38.180Z,8.33
2018-10-01T22:14:06.532Z,8.33
2018-10-01T22:16:35.499Z,8.35
2018-10-01T22:19:03.979Z,8.30
2018-10-01T22:21:32.424Z,8.19
2018-10-01T22:24:01.128Z,8.19
2018-10-01T22:26:29.475Z,8.16
2018-10-01T22:28:57.844Z,8.15
2018-10-01T22:31:26.559Z,8.22
2018-10-01T22:33:54.971Z,8.26
2018-10-01T22:36:23.407Z,8.25
2018-10-01T22:38:52.009Z,8.32
2018-10-01T22:41:20.350Z,8.34
2018-10-01T22:43:48.751Z,8.36
2018-10-01T22:46:17.643Z,8.30
2018-10-01T22:48:45.980Z,8.36
2018-10-01T22:51:14.403Z,8.41
2018-10-01T22:53:43.399Z,8.44
2018-10-01T22:56:11.755Z,8.49
2018-10-01T22:58:41.104Z,8.56
2018-10-01T23:01:10.172Z,8.59
2018-10-01T23:03:38.541Z,8.63
2018-10-01T23:06:07.115Z,8.63
2018-10-01T23:08:35.919Z,8.64
2018-10-01T23:11:04.268Z,8.64
2018-10-01T23:13:32.597Z,8.61
2018-10-01T23:16:01.595Z,8.44
2018-10-01T23:18:30.076Z,8.52
2018-10-01T23:20:58.579Z,8.54
2018-10-01T23:23:27.016Z,8.55
2018-10-01T23:25:55.565Z,8.56
2018-10-01T23:28:24.092Z,8.54
2018-10-01T23:30:52.855Z,8.45
2018-10-01T23:33:21.355Z,8.41
2018-10-01T23:35:49.809Z,8.45
2018-10-01T23:38:18.529Z,8.42
2018-10-01T23:40:47.016Z,8.36
2018-10-01T23:43:15.351Z,8.33
2018-10-01T23:45:44.055Z,8.29
2018-10-01T23:48:12.564Z,8.28
2018-10-01T23:50:40.912Z,8.28
2018-10-01T23:53:09.991Z,8.27
2018-10-01T23:55:38.787Z,8.27
2018-10-01T23:58:07.163Z,8.27
